createdAt,value
2018-03-27T00:00:36.415Z,93.30
2018-03-27T00:03:05.281Z,93.70
2018-03-27T00:05:32.885Z,93.80
2018-03-27T00:08:00.624Z,93.80
2018-03-27T00:10:28.200Z,93.80
2018-03-27T00:12:55.762Z,93.90
2018-03-27T00:15:23.308Z,93.80
2018-03-27T00:17:50.869Z,93.70
2018-03-27T00:20:18.464Z,93.70
2018-03-27T00:22:46.783Z,93.80
2018-03-27T00:25:15.191Z,93.60
2018-03-27T00:27:55.241Z,93.60
2018-03-27T00:30:34.797Z,93.60
2018-03-27T00:33:13.972Z,93.50
2018-03-27T00:35:54.284Z,93.10
2018-03-27T00:38:33.734Z,93.10
2018-03-27T00:41:01.423Z,92.80
2018-03-27T00:43:29.058Z,92.60
2018-03-27T00:45:56.612Z,92.40
2018-03-27T00:48:24.177Z,92.40
2018-03-27T00:50:51.724Z,92.80
2018-03-27T00:53:19.284Z,93.10
2018-03-27T00:55:46.880Z,93.40
2018-03-27T00:58:14.539Z,93.40
2018-03-27T01:00:42.245Z,93.40
2018-03-27T01:03:10.597Z,93.50
2018-03-27T01:05:38.169Z,93.50
2018-03-27T01:08:06.502Z,93.40
2018-03-27T01:10:34.162Z,93.60
2018-03-27T01:13:01.720Z,93.70
2018-03-27T01:15:30.135Z,93.80
2018-03-27T01:17:57.759Z,93.80
2018-03-27T01:20:25.339Z,94.10
2018-03-27T01:22:54.044Z,94.20
2018-03-27T01:25:21.662Z,94.10
2018-03-27T01:27:49.905Z,94.10
2018-03-27T01:30:18.264Z,94.20
2018-03-27T01:32:45.918Z,94.10
2018-03-27T01:35:13.583Z,94.10
2018-03-27T01:37:41.251Z,94.10
2018-03-27T01:40:08.904Z,94.10
2018-03-27T01:42:36.462Z,94.10
2018-03-27T01:45:04.012Z,94.10
2018-03-27T01:47:31.586Z,94.10
2018-03-27T01:49:59.139Z,94.10
2018-03-27T01:52:26.789Z,94.10
2018-03-27T01:54:54.364Z,94.20
2018-03-27T01:57:21.915Z,94.10
2018-03-27T01:59:49.471Z,94.20
2018-03-27T02:02:17.159Z,94.30
2018-03-27T02:04:44.798Z,94.30
2018-03-27T02:07:12.356Z,94.30
2018-03-27T02:09:39.929Z,94.20
2018-03-27T02:12:13.201Z,94.20
2018-03-27T02:14:46.402Z,94.20
2018-03-27T02:17:19.571Z,94.20
2018-03-27T02:19:53.567Z,94.20
2018-03-27T02:22:21.883Z,94.20
2018-03-27T02:24:49.423Z,94.20
2018-03-27T02:27:17.751Z,94.30
2018-03-27T02:29:46.808Z,94.30
2018-03-27T02:32:14.358Z,94.30
2018-03-27T02:34:42.766Z,94.20
2018-03-27T02:37:10.320Z,94.20
2018-03-27T02:39:37.916Z,94.20
2018-03-27T02:42:05.497Z,94.20
2018-03-27T02:44:33.061Z,94.30
2018-03-27T02:47:00.612Z,94.30
2018-03-27T02:49:29.258Z,94.30
2018-03-27T02:51:56.839Z,94.30
2018-03-27T02:54:24.505Z,94.20
2018-03-27T02:56:52.899Z,94.00
2018-03-27T02:59:20.643Z,94.00
2018-03-27T03:01:48.203Z,94.00
2018-03-27T03:04:15.785Z,94.00
2018-03-27T03:06:43.516Z,94.10
2018-03-27T03:09:11.183Z,94.20
2018-03-27T03:11:38.752Z,94.20
2018-03-27T03:14:06.316Z,94.20
2018-03-27T03:16:33.869Z,94.20
2018-03-27T03:19:01.845Z,94.20
2018-03-27T03:21:29.411Z,94.20
2018-03-27T03:23:56.959Z,94.30
2018-03-27T03:26:24.717Z,94.20
2018-03-27T03:28:53.761Z,94.40
2018-03-27T03:31:21.315Z,94.30
2018-03-27T03:33:49.370Z,94.70
2018-03-27T03:36:17.038Z,94.30
2018-03-27T03:38:44.612Z,94.30
2018-03-27T03:41:12.932Z,94.30
2018-03-27T03:43:41.729Z,94.30
2018-03-27T03:46:10.300Z,94.20
2018-03-27T03:48:37.903Z,94.30
2018-03-27T03:51:05.468Z,94.40
2018-03-27T03:53:33.032Z,94.30
2018-03-27T03:56:02.010Z,94.30
2018-03-27T03:58:29.567Z,94.30
2018-03-27T04:00:57.129Z,94.60
2018-03-27T04:03:24.820Z,94.60
2018-03-27T04:05:52.776Z,94.60
2018-03-27T04:08:20.336Z,94.60
2018-03-27T04:10:48.010Z,94.50
2018-03-27T04:13:15.583Z,94.50
2018-03-27T04:15:43.152Z,94.50
2018-03-27T04:18:12.831Z,94.50
2018-03-27T04:20:40.387Z,94.80
2018-03-27T04:23:08.567Z,94.40
2018-03-27T04:25:36.243Z,94.40
2018-03-27T04:28:03.908Z,94.40
2018-03-27T04:30:31.562Z,94.30
2018-03-27T04:32:59.130Z,94.30
2018-03-27T04:35:26.685Z,94.30
2018-03-27T04:37:54.239Z,94.20
2018-03-27T04:40:21.809Z,94.30
2018-03-27T04:42:52.402Z,94.20
2018-03-27T04:45:20.564Z,94.20
2018-03-27T04:47:49.001Z,94.20
2018-03-27T04:50:16.658Z,94.10
2018-03-27T04:52:46.200Z,94.10
2018-03-27T04:55:13.820Z,93.90
2018-03-27T04:57:41.389Z,93.90
2018-03-27T05:00:09.136Z,93.90
2018-03-27T05:02:36.815Z,93.80
2018-03-27T05:05:04.485Z,93.80
2018-03-27T05:07:32.151Z,93.80
2018-03-27T05:09:59.806Z,93.70
2018-03-27T05:12:27.370Z,93.70
2018-03-27T05:14:55.035Z,93.60
2018-03-27T05:17:22.603Z,93.60
2018-03-27T05:19:51.764Z,93.60
2018-03-27T05:22:19.329Z,93.80
2018-03-27T05:24:47.804Z,93.50
2018-03-27T05:27:16.574Z,93.40
2018-03-27T05:29:45.492Z,93.40
2018-03-27T05:32:13.071Z,93.40
2018-03-27T05:34:40.655Z,93.40
2018-03-27T05:37:08.210Z,93.40
2018-03-27T05:39:35.761Z,93.30
2018-03-27T05:42:03.443Z,93.30
2018-03-27T05:44:31.779Z,93.40
2018-03-27T05:46:59.350Z,93.10
2018-03-27T05:49:26.897Z,93.10
2018-03-27T05:51:54.440Z,93.20
2018-03-27T05:54:22.037Z,93.10
2018-03-27T05:56:50.530Z,93.60
2018-03-27T05:59:18.190Z,93.20
2018-03-27T06:01:45.777Z,93.30
2018-03-27T06:04:13.336Z,93.20
2018-03-27T06:06:40.895Z,93.20
2018-03-27T06:09:09.900Z,93.10
2018-03-27T06:11:38.222Z,93.10
2018-03-27T06:14:06.937Z,93.10
2018-03-27T06:16:34.520Z,93.10
2018-03-27T06:19:02.070Z,93.10
2018-03-27T06:21:29.724Z,93.20
2018-03-27T06:23:58.114Z,93.20
2018-03-27T06:26:25.683Z,93.20
2018-03-27T06:28:53.401Z,93.10
2018-03-27T06:31:20.999Z,93.00
2018-03-27T06:33:49.586Z,93.00
2018-03-27T06:36:18.229Z,92.90
2018-03-27T06:38:45.834Z,92.80
2018-03-27T06:41:14.203Z,92.70
2018-03-27T06:43:41.771Z,92.80
2018-03-27T06:46:09.734Z,92.80
2018-03-27T06:48:37.403Z,92.70
2018-03-27T06:51:05.786Z,92.70
2018-03-27T06:53:33.355Z,92.60
2018-03-27T06:56:02.954Z,92.50
2018-03-27T06:58:30.514Z,92.40
2018-03-27T07:00:59.244Z,92.30
2018-03-27T07:03:27.574Z,91.90
2018-03-27T07:05:55.211Z,91.90
2018-03-27T07:08:22.783Z,91.90
2018-03-27T07:10:50.361Z,91.80
2018-03-27T07:13:17.919Z,91.60
2018-03-27T07:15:45.634Z,91.30
2018-03-27T07:18:13.944Z,89.90
2018-03-27T07:20:41.560Z,89.90
2018-03-27T07:23:09.115Z,89.60
2018-03-27T07:25:37.434Z,88.10
2018-03-27T07:28:04.987Z,87.90
2018-03-27T07:30:32.575Z,87.20
2018-03-27T07:33:00.144Z,86.30
2018-03-27T07:35:27.710Z,85.50
2018-03-27T07:37:55.353Z,84.60
2018-03-27T07:40:22.924Z,84.50
2018-03-27T07:42:50.484Z,81.80
2018-03-27T07:45:19.393Z,81.60
2018-03-27T07:47:46.961Z,81.30
2018-03-27T07:50:14.598Z,80.50
2018-03-27T07:52:42.268Z,80.70
2018-03-27T07:55:10.828Z,80.50
2018-03-27T07:57:38.411Z,80.00
2018-03-27T08:00:06.723Z,80.20
2018-03-27T08:02:35.056Z,79.70
2018-03-27T08:05:02.605Z,79.70
2018-03-27T08:07:30.173Z,79.80
2018-03-27T08:09:57.741Z,79.70
2018-03-27T08:12:26.477Z,80.00
2018-03-27T08:14:54.834Z,80.50
2018-03-27T08:17:22.406Z,80.40
2018-03-27T08:19:49.952Z,80.30
2018-03-27T08:22:18.640Z,80.70
2018-03-27T08:24:46.192Z,80.10
2018-03-27T08:27:13.867Z,80.90
2018-03-27T08:29:41.450Z,80.00
2018-03-27T08:32:09.774Z,80.10
2018-03-27T08:34:37.340Z,80.00
2018-03-27T08:37:05.011Z,79.80
2018-03-27T08:39:32.573Z,79.80
2018-03-27T08:42:00.131Z,80.40
2018-03-27T08:44:27.688Z,80.40
2018-03-27T08:46:55.263Z,80.60
2018-03-27T08:49:23.287Z,79.60
2018-03-27T08:51:50.843Z,79.90
2018-03-27T08:54:18.386Z,79.50
2018-03-27T08:56:46.702Z,79.70
2018-03-27T08:59:14.279Z,79.70
2018-03-27T09:01:41.944Z,79.10
2018-03-27T09:04:09.508Z,79.70
2018-03-27T09:06:37.079Z,79.30
2018-03-27T09:09:04.644Z,79.90
2018-03-27T09:11:32.215Z,80.10
2018-03-27T09:14:00.557Z,80.50
2018-03-27T09:16:28.132Z,80.50
2018-03-27T09:18:55.755Z,80.60
2018-03-27T09:21:23.334Z,80.90
2018-03-27T09:23:50.891Z,80.10
2018-03-27T09:26:18.471Z,80.30
2018-03-27T09:28:46.702Z,79.90
2018-03-27T09:31:14.264Z,80.10
2018-03-27T09:33:42.572Z,78.80
2018-03-27T09:36:10.150Z,78.70
2018-03-27T09:38:37.715Z,79.50
2018-03-27T09:41:05.280Z,79.30
2018-03-27T09:43:32.841Z,79.40
2018-03-27T09:46:00.495Z,78.90
2018-03-27T09:48:28.045Z,78.80
2018-03-27T09:50:55.648Z,76.40
2018-03-27T09:53:23.977Z,75.90
2018-03-27T09:55:52.304Z,75.80
2018-03-27T09:58:19.879Z,76.10
2018-03-27T10:00:51.979Z,76.10
2018-03-27T10:03:20.563Z,76.00
2018-03-27T10:05:49.063Z,77.00
2018-03-27T10:08:16.620Z,75.20
2018-03-27T10:10:44.195Z,75.30
2018-03-27T10:13:11.847Z,77.10
2018-03-27T10:15:39.627Z,77.60
2018-03-27T10:18:08.646Z,79.30
2018-03-27T10:20:37.747Z,83.20
2018-03-27T10:23:06.169Z,84.10
2018-03-27T10:25:35.031Z,84.00
2018-03-27T10:28:02.602Z,81.00
2018-03-27T10:30:30.161Z,83.10
2018-03-27T10:32:57.844Z,85.40
2018-03-27T10:35:25.417Z,85.80
2018-03-27T10:37:52.973Z,87.50
2018-03-27T10:40:21.277Z,88.40
2018-03-27T10:42:48.926Z,87.40
2018-03-27T10:45:17.361Z,86.30
2018-03-27T10:47:44.933Z,86.60
2018-03-27T10:50:12.512Z,88.20
2018-03-27T10:52:40.064Z,88.50
2018-03-27T10:55:07.607Z,88.40
2018-03-27T10:57:35.194Z,87.40
2018-03-27T11:00:02.747Z,89.20
2018-03-27T11:02:30.307Z,89.80
2018-03-27T11:04:57.885Z,90.10
2018-03-27T11:07:25.454Z,90.10
2018-03-27T11:09:54.152Z,90.00
2018-03-27T11:12:22.561Z,90.20
2018-03-27T11:14:50.876Z,91.20
2018-03-27T11:17:18.455Z,91.10
2018-03-27T11:19:46.011Z,90.50
2018-03-27T11:22:13.575Z,90.60
2018-03-27T11:24:41.146Z,91.60
2018-03-27T11:27:08.697Z,91.30
2018-03-27T11:29:36.261Z,91.60
2018-03-27T11:32:03.831Z,91.60
2018-03-27T11:34:31.400Z,91.40
2018-03-27T11:36:59.032Z,91.80
2018-03-27T11:39:26.580Z,92.00
2018-03-27T11:41:54.144Z,91.90
2018-03-27T11:44:21.739Z,92.00
2018-03-27T11:46:49.394Z,91.70
2018-03-27T11:49:17.058Z,91.90
2018-03-27T11:51:44.627Z,91.90
2018-03-27T11:54:13.051Z,92.30
2018-03-27T11:56:40.657Z,92.30
2018-03-27T11:59:09.079Z,92.30
2018-03-27T12:01:37.432Z,92.50
2018-03-27T12:04:04.991Z,92.50
2018-03-27T12:06:32.552Z,92.30
2018-03-27T12:09:00.178Z,92.30
2018-03-27T12:11:27.750Z,92.70
2018-03-27T12:13:55.313Z,92.60
2018-03-27T12:16:22.876Z,93.00
2018-03-27T12:18:50.546Z,92.90
2018-03-27T12:21:18.202Z,93.20
2018-03-27T12:23:45.750Z,93.50
2018-03-27T12:26:13.331Z,94.00
2018-03-27T12:28:41.350Z,93.90
2018-03-27T12:31:10.140Z,94.00
2018-03-27T12:33:38.549Z,93.70
2018-03-27T12:36:06.137Z,93.70
2018-03-27T12:38:33.777Z,94.40
2018-03-27T12:41:01.354Z,94.40
2018-03-27T12:43:29.024Z,94.20
2018-03-27T12:45:56.587Z,94.50
2018-03-27T12:48:24.165Z,94.40
2018-03-27T12:50:52.502Z,94.70
2018-03-27T12:53:20.077Z,94.60
2018-03-27T12:55:47.744Z,94.40
2018-03-27T12:58:15.389Z,94.70
2018-03-27T13:00:43.799Z,95.20
2018-03-27T13:03:11.375Z,94.90
2018-03-27T13:05:38.950Z,94.70
2018-03-27T13:08:06.535Z,95.40
2018-03-27T13:10:34.319Z,95.20
2018-03-27T13:13:01.971Z,95.30
2018-03-27T13:15:29.536Z,95.30
2018-03-27T13:17:57.126Z,95.20
2018-03-27T13:20:24.692Z,95.00
2018-03-27T13:22:52.334Z,94.90
2018-03-27T13:25:20.004Z,95.00
2018-03-27T13:27:47.561Z,95.10
2018-03-27T13:30:16.788Z,95.40
2018-03-27T13:32:45.134Z,95.90
2018-03-27T13:35:12.839Z,95.60
2018-03-27T13:37:42.160Z,95.80
2018-03-27T13:40:09.774Z,95.80
2018-03-27T13:42:37.442Z,95.80
2018-03-27T13:45:05.014Z,95.60
2018-03-27T13:47:34.225Z,95.80
2018-03-27T13:50:02.554Z,96.00
2018-03-27T13:52:30.130Z,96.10
2018-03-27T13:54:57.791Z,96.00
2018-03-27T13:57:25.356Z,96.20
2018-03-27T13:59:52.928Z,96.40
2018-03-27T14:02:20.486Z,96.70
2018-03-27T14:04:48.139Z,96.70
2018-03-27T14:07:15.793Z,96.70
2018-03-27T14:09:43.371Z,97.10
2018-03-27T14:12:11.130Z,97.20
2018-03-27T14:14:38.674Z,97.20
2018-03-27T14:17:06.241Z,97.20
2018-03-27T14:19:33.797Z,97.40
2018-03-27T14:22:01.362Z,97.50
2018-03-27T14:24:30.138Z,97.60
2018-03-27T14:26:57.709Z,97.40
2018-03-27T14:29:25.376Z,97.10
2018-03-27T14:31:55.648Z,97.30
2018-03-27T14:34:23.959Z,96.10
2018-03-27T14:36:51.505Z,96.10
2018-03-27T14:39:19.078Z,96.50
2018-03-27T14:41:46.662Z,96.70
2018-03-27T14:44:14.214Z,96.30
2018-03-27T14:46:41.769Z,96.00
2018-03-27T14:49:09.376Z,96.10
2018-03-27T14:51:37.701Z,96.20
2018-03-27T14:54:05.281Z,96.20
2018-03-27T14:56:32.838Z,96.60
2018-03-27T14:59:00.422Z,96.90
2018-03-27T15:01:27.970Z,96.40
2018-03-27T15:03:55.516Z,96.20
2018-03-27T15:06:23.061Z,96.60
2018-03-27T15:08:50.634Z,96.80
2018-03-27T15:11:18.195Z,96.90
2018-03-27T15:13:46.260Z,97.50
2018-03-27T15:16:14.649Z,97.40
2018-03-27T15:18:42.205Z,97.40
2018-03-27T15:21:09.848Z,97.50
2018-03-27T15:23:37.438Z,97.30
2018-03-27T15:26:05.585Z,97.40
2018-03-27T15:28:33.133Z,97.60
2018-03-27T15:31:00.745Z,97.70
2018-03-27T15:33:28.443Z,97.80
2018-03-27T15:35:55.983Z,98.00
2018-03-27T15:38:23.533Z,98.00
2018-03-27T15:40:52.011Z,98.20
2018-03-27T15:43:20.265Z,98.10
2018-03-27T15:45:47.977Z,98.00
2018-03-27T15:48:16.340Z,97.90
2018-03-27T15:50:44.261Z,97.90
2018-03-27T15:53:12.568Z,97.80
2018-03-27T15:55:40.143Z,97.90
2018-03-27T15:58:07.726Z,97.90
2018-03-27T16:00:36.082Z,97.60
2018-03-27T16:03:03.637Z,97.60
2018-03-27T16:05:31.187Z,97.30
2018-03-27T16:07:58.833Z,97.60
2018-03-27T16:10:26.376Z,97.30
2018-03-27T16:12:53.970Z,97.10
2018-03-27T16:15:22.445Z,97.00
2018-03-27T16:17:50.129Z,97.30
2018-03-27T16:20:17.677Z,97.60
2018-03-27T16:22:45.232Z,97.70
2018-03-27T16:25:12.771Z,97.90
2018-03-27T16:27:41.030Z,97.70
2018-03-27T16:30:08.596Z,97.80
2018-03-27T16:32:36.148Z,98.20
2018-03-27T16:35:03.685Z,98.20
2018-03-27T16:37:32.101Z,98.60
2018-03-27T16:39:59.690Z,98.60
2018-03-27T16:42:27.247Z,98.60
2018-03-27T16:44:54.804Z,98.70
2018-03-27T16:47:22.359Z,98.90
2018-03-27T16:49:50.321Z,98.90
2018-03-27T16:52:18.183Z,99.10
2018-03-27T16:54:45.747Z,99.20
2018-03-27T16:57:13.323Z,99.40
2018-03-27T16:59:40.885Z,99.50
2018-03-27T17:02:08.528Z,99.40
2018-03-27T17:04:36.107Z,99.50
2018-03-27T17:07:03.770Z,99.50
2018-03-27T17:09:31.326Z,99.60
2018-03-27T17:11:59.077Z,99.60
2018-03-27T17:14:27.294Z,99.60
2018-03-27T17:16:54.840Z,99.60
2018-03-27T17:19:22.404Z,99.80
2018-03-27T17:21:50.091Z,99.80
2018-03-27T17:24:18.638Z,99.90
2018-03-27T17:26:46.180Z,99.90
2018-03-27T17:29:14.712Z,99.90
2018-03-27T17:31:43.010Z,99.90
2018-03-27T17:34:13.116Z,99.90
2018-03-27T17:36:40.720Z,99.90
2018-03-27T17:39:08.282Z,99.90
2018-03-27T17:41:35.821Z,99.90
2018-03-27T17:44:03.378Z,99.90
2018-03-27T17:46:30.921Z,99.90
2018-03-27T17:48:59.243Z,99.90
2018-03-27T17:51:26.807Z,99.90
2018-03-27T17:53:54.357Z,99.90
2018-03-27T17:56:22.757Z,99.90
2018-03-27T17:58:51.026Z,99.90
2018-03-27T18:01:18.576Z,99.90
2018-03-27T18:03:46.135Z,99.90
2018-03-27T18:06:13.702Z,99.90
2018-03-27T18:08:41.272Z,99.90
2018-03-27T18:11:09.015Z,99.90
2018-03-27T18:13:36.586Z,99.90
2018-03-27T18:16:04.132Z,99.90
2018-03-27T18:18:31.692Z,99.90
2018-03-27T18:20:59.256Z,99.90
2018-03-27T18:23:26.824Z,99.90
2018-03-27T18:25:54.473Z,99.90
2018-03-27T18:28:22.887Z,99.90
2018-03-27T18:30:51.440Z,99.90
2018-03-27T18:33:18.986Z,99.90
2018-03-27T18:35:46.674Z,99.90
2018-03-27T18:38:15.147Z,99.90
2018-03-27T18:40:42.728Z,99.90
2018-03-27T18:43:10.318Z,99.90
2018-03-27T18:45:37.876Z,99.90
2018-03-27T18:48:06.989Z,99.90
2018-03-27T18:50:35.378Z,99.90
2018-03-27T18:53:03.752Z,99.90
2018-03-27T18:55:32.076Z,99.90
2018-03-27T18:57:59.658Z,99.90
2018-03-27T19:00:27.223Z,99.90
2018-03-27T19:02:54.872Z,99.90
2018-03-27T19:05:22.439Z,99.90
2018-03-27T19:07:49.991Z,99.90
2018-03-27T19:10:17.539Z,99.90
2018-03-27T19:12:45.207Z,99.90
2018-03-27T19:15:12.793Z,99.90
2018-03-27T19:17:41.841Z,99.90
2018-03-27T19:20:09.405Z,99.90
2018-03-27T19:22:37.446Z,99.90
2018-03-27T19:25:05.769Z,99.90
2018-03-27T19:27:33.454Z,99.90
2018-03-27T19:30:01.011Z,99.90
2018-03-27T19:32:29.340Z,99.90
2018-03-27T19:34:56.935Z,99.90
2018-03-27T19:37:24.494Z,99.90
2018-03-27T19:39:52.634Z,99.90
2018-03-27T19:42:20.198Z,99.90
2018-03-27T19:44:48.915Z,99.90
2018-03-27T19:47:16.467Z,99.90
2018-03-27T19:49:44.148Z,99.90
2018-03-27T19:52:12.504Z,99.90
2018-03-27T19:54:40.089Z,99.90
2018-03-27T19:57:08.759Z,99.90
2018-03-27T19:59:36.323Z,99.90
2018-03-27T20:02:03.877Z,99.90
2018-03-27T20:04:31.476Z,99.90
2018-03-27T20:06:59.038Z,99.90
2018-03-27T20:09:27.761Z,99.90
2018-03-27T20:11:55.368Z,99.90
2018-03-27T20:14:23.038Z,99.90
2018-03-27T20:16:50.600Z,99.90
2018-03-27T20:19:18.163Z,99.90
2018-03-27T20:21:45.806Z,99.90
2018-03-27T20:24:13.360Z,99.90
2018-03-27T20:26:41.077Z,99.90
2018-03-27T20:29:10.405Z,99.90
2018-03-27T20:31:38.393Z,99.90
2018-03-27T20:34:06.867Z,99.90
2018-03-27T20:36:34.463Z,99.90
2018-03-27T20:39:02.078Z,99.90
2018-03-27T20:41:29.657Z,99.90
2018-03-27T20:43:57.219Z,99.90
2018-03-27T20:46:24.762Z,99.90
2018-03-27T20:48:52.349Z,99.90
2018-03-27T20:51:19.902Z,99.90
2018-03-27T20:53:47.455Z,99.90
2018-03-27T20:56:15.042Z,99.90
2018-03-27T20:58:42.588Z,99.90
2018-03-27T21:01:10.254Z,99.90
2018-03-27T21:03:38.110Z,99.90
2018-03-27T21:06:06.954Z,99.90
2018-03-27T21:08:36.032Z,99.90
2018-03-27T21:11:04.274Z,99.90
2018-03-27T21:13:33.156Z,99.90
2018-03-27T21:16:01.541Z,99.90
2018-03-27T21:18:29.212Z,99.90
2018-03-27T21:20:56.941Z,99.90
2018-03-27T21:23:24.513Z,99.90
2018-03-27T21:25:52.092Z,99.90
2018-03-27T21:28:19.645Z,99.90
2018-03-27T21:30:47.215Z,99.90
2018-03-27T21:33:15.795Z,99.90
2018-03-27T21:35:43.364Z,99.90
2018-03-27T21:38:11.036Z,99.90
2018-03-27T21:40:38.648Z,99.90
2018-03-27T21:43:06.940Z,99.90
2018-03-27T21:45:34.527Z,99.90
2018-03-27T21:48:05.497Z,99.90
2018-03-27T21:50:33.820Z,99.90
2018-03-27T21:53:01.411Z,99.90
2018-03-27T21:55:29.070Z,99.90
2018-03-27T21:57:58.283Z,99.90
2018-03-27T22:00:26.654Z,99.90
2018-03-27T22:02:54.310Z,99.90
2018-03-27T22:05:21.871Z,99.90
2018-03-27T22:07:50.074Z,99.90
2018-03-27T22:10:17.654Z,99.90
2018-03-27T22:12:46.400Z,99.90
2018-03-27T22:15:13.958Z,99.90
2018-03-27T22:17:41.629Z,99.90
2018-03-27T22:20:09.770Z,99.90
2018-03-27T22:22:37.335Z,99.90
2018-03-27T22:25:04.922Z,99.90
2018-03-27T22:27:32.829Z,99.90
2018-03-27T22:30:01.141Z,99.90
2018-03-27T22:32:28.714Z,99.90
2018-03-27T22:34:56.275Z,99.90
2018-03-27T22:37:25.285Z,99.90
2018-03-27T22:39:52.843Z,99.90
2018-03-27T22:42:20.523Z,99.90
2018-03-27T22:44:48.159Z,99.90
2018-03-27T22:47:15.835Z,99.90
2018-03-27T22:49:43.389Z,99.90
2018-03-27T22:52:10.951Z,99.90
2018-03-27T22:54:38.705Z,99.90
2018-03-27T22:57:06.281Z,99.90
2018-03-27T22:59:33.844Z,99.90
2018-03-27T23:02:07.565Z,99.90
2018-03-27T23:04:35.127Z,99.90
2018-03-27T23:07:03.564Z,99.90
2018-03-27T23:09:31.259Z,99.90
2018-03-27T23:11:59.516Z,99.90
2018-03-27T23:14:27.081Z,99.90
2018-03-27T23:16:54.656Z,99.90
2018-03-27T23:19:22.340Z,99.90
2018-03-27T23:21:50.017Z,99.90
2018-03-27T23:24:18.905Z,99.90
2018-03-27T23:26:47.249Z,99.90
2018-03-27T23:29:14.802Z,99.90
2018-03-27T23:31:42.477Z,99.90
2018-03-27T23:34:10.039Z,99.90
2018-03-27T23:36:38.699Z,99.90
2018-03-27T23:39:06.383Z,99.90
2018-03-27T23:41:33.946Z,99.90
2018-03-27T23:44:03.039Z,99.90
2018-03-27T23:46:31.628Z,99.90
2018-03-27T23:48:59.233Z,99.90
2018-03-27T23:51:27.560Z,99.90
2018-03-27T23:53:55.234Z,99.90
2018-03-27T23:56:22.888Z,99.90
2018-03-27T23:58:50.446Z,99.90
